sensor_id;sensor_type;location;lat;lon;timestamp;noise_LAeq;noise_LA_min;noise_LA_max;noise_LA01;noise_LA95
36217;Laerm;22259;48.792;8.964;2023-07-31T00:01:41;41.97;39.67;46.07;;
36217;Laerm;22259;48.792;8.964;2023-07-31T00:04:07;52.87;39.15;71.94;;
36217;Laerm;22259;48.792;8.964;2023-07-31T00:06:32;41.31;39.34;44.94;;
36217;Laerm;22259;48.792;8.964;2023-07-31T00:08:57;41.50;39.05;45.25;;
36217;Laerm;22259;48.792;8.964;2023-07-31T00:11:23;41.69;39.05;58.81;;
36217;Laerm;22259;48.792;8.964;2023-07-31T00:13:48;41.23;38.88;43.49;;
36217;Laerm;22259;48.792;8.964;2023-07-31T00:16:13;41.12;38.41;43.10;;
36217;Laerm;22259;48.792;8.964;2023-07-31T00:18:39;41.19;38.95;43.43;;
36217;Laerm;22259;48.792;8.964;2023-07-31T00:21:04;41.37;39.12;43.33;;
36217;Laerm;22259;48.792;8.964;2023-07-31T00:23:30;41.34;39.15;44.79;;
36217;Laerm;22259;48.792;8.964;2023-07-31T00:25:55;41.36;39.25;43.45;;
36217;Laerm;22259;48.792;8.964;2023-07-31T00:28:20;41.53;39.28;45.87;;
36217;Laerm;22259;48.792;8.964;2023-07-31T00:30:46;41.82;39.18;44.95;;
36217;Laerm;22259;48.792;8.964;2023-07-31T00:33:11;41.56;39.40;44.21;;
36217;Laerm;22259;48.792;8.964;2023-07-31T00:35:36;41.94;39.43;45.34;;
36217;Laerm;22259;48.792;8.964;2023-07-31T00:38:02;42.07;39.40;44.20;;
36217;Laerm;22259;48.792;8.964;2023-07-31T00:40:27;42.14;39.12;44.85;;
36217;Laerm;22259;48.792;8.964;2023-07-31T00:42:53;41.87;39.25;44.66;;
36217;Laerm;22259;48.792;8.964;2023-07-31T00:45:18;41.40;38.60;43.50;;
36217;Laerm;22259;48.792;8.964;2023-07-31T00:47:43;41.43;39.08;43.19;;
36217;Laerm;22259;48.792;8.964;2023-07-31T00:50:09;41.33;39.08;44.87;;
36217;Laerm;22259;48.792;8.964;2023-07-31T00:52:35;41.62;39.31;43.76;;
36217;Laerm;22259;48.792;8.964;2023-07-31T00:55:00;41.99;39.46;46.01;;
36217;Laerm;22259;48.792;8.964;2023-07-31T00:57:26;42.69;39.52;48.99;;
36217;Laerm;22259;48.792;8.964;2023-07-31T00:59:51;41.87;39.58;46.42;;
36217;Laerm;22259;48.792;8.964;2023-07-31T01:02:17;41.75;39.40;45.07;;
36217;Laerm;22259;48.792;8.964;2023-07-31T01:04:43;41.70;39.02;43.92;;
36217;Laerm;22259;48.792;8.964;2023-07-31T01:07:28;41.80;39.28;43.99;;
36217;Laerm;22259;48.792;8.964;2023-07-31T01:10:08;41.39;38.81;49.67;;
36217;Laerm;22259;48.792;8.964;2023-07-31T01:12:36;42.80;39.95;65.19;;
36217;Laerm;22259;48.792;8.964;2023-07-31T01:15:07;42.13;39.92;44.30;;
36217;Laerm;22259;48.792;8.964;2023-07-31T01:17:35;41.87;39.37;44.23;;
36217;Laerm;22259;48.792;8.964;2023-07-31T01:20:02;41.87;39.81;44.74;;
36217;Laerm;22259;48.792;8.964;2023-07-31T01:26:26;42.37;39.58;45.10;;
36217;Laerm;22259;48.792;8.964;2023-07-31T01:28:58;42.82;40.38;44.86;;
36217;Laerm;22259;48.792;8.964;2023-07-31T01:31:26;42.71;39.84;44.74;;
36217;Laerm;22259;48.792;8.964;2023-07-31T01:33:54;43.10;40.67;46.32;;
36217;Laerm;22259;48.792;8.964;2023-07-31T01:36:21;43.31;41.16;46.01;;
36217;Laerm;22259;48.792;8.964;2023-07-31T01:38:47;42.97;39.75;45.93;;
36217;Laerm;22259;48.792;8.964;2023-07-31T01:41:12;43.05;40.43;50.89;;
36217;Laerm;22259;48.792;8.964;2023-07-31T01:43:38;43.05;40.45;46.90;;
36217;Laerm;22259;48.792;8.964;2023-07-31T01:46:03;42.69;40.03;45.23;;
36217;Laerm;22259;48.792;8.964;2023-07-31T01:48:29;42.82;40.36;45.86;;
36217;Laerm;22259;48.792;8.964;2023-07-31T01:51:00;42.91;39.81;45.57;;
36217;Laerm;22259;48.792;8.964;2023-07-31T01:53:26;43.01;40.31;45.19;;
36217;Laerm;22259;48.792;8.964;2023-07-31T01:55:51;42.79;39.89;48.31;;
36217;Laerm;22259;48.792;8.964;2023-07-31T01:58:17;42.92;40.64;47.83;;
36217;Laerm;22259;48.792;8.964;2023-07-31T02:00:42;49.55;40.93;64.13;;
36217;Laerm;22259;48.792;8.964;2023-07-31T02:03:07;43.18;39.75;46.66;;
36217;Laerm;22259;48.792;8.964;2023-07-31T02:05:33;43.00;40.36;46.01;;
36217;Laerm;22259;48.792;8.964;2023-07-31T02:07:58;43.67;41.02;48.98;;
36217;Laerm;22259;48.792;8.964;2023-07-31T02:10:23;43.31;40.57;48.97;;
36217;Laerm;22259;48.792;8.964;2023-07-31T02:12:49;43.33;40.89;45.91;;
36217;Laerm;22259;48.792;8.964;2023-07-31T02:15:14;43.78;40.33;51.72;;
36217;Laerm;22259;48.792;8.964;2023-07-31T02:17:40;43.07;40.43;46.05;;
36217;Laerm;22259;48.792;8.964;2023-07-31T02:20:05;43.71;41.42;46.88;;
36217;Laerm;22259;48.792;8.964;2023-07-31T02:22:31;43.54;41.18;45.96;;
36217;Laerm;22259;48.792;8.964;2023-07-31T02:24:56;44.07;41.24;48.29;;
36217;Laerm;22259;48.792;8.964;2023-07-31T02:27:22;43.50;40.97;46.79;;
36217;Laerm;22259;48.792;8.964;2023-07-31T02:29:49;44.08;41.77;47.99;;
36217;Laerm;22259;48.792;8.964;2023-07-31T02:32:14;43.81;41.06;54.46;;
36217;Laerm;22259;48.792;8.964;2023-07-31T02:34:40;44.06;41.20;48.41;;
36217;Laerm;22259;48.792;8.964;2023-07-31T02:37:05;43.92;40.91;51.23;;
36217;Laerm;22259;48.792;8.964;2023-07-31T02:39:30;43.51;40.36;49.84;;
36217;Laerm;22259;48.792;8.964;2023-07-31T02:41:56;43.67;41.20;47.10;;
36217;Laerm;22259;48.792;8.964;2023-07-31T02:44:21;43.64;40.69;45.77;;
36217;Laerm;22259;48.792;8.964;2023-07-31T02:46:46;54.11;40.60;70.45;;
36217;Laerm;22259;48.792;8.964;2023-07-31T02:49:12;43.38;41.42;48.49;;
36217;Laerm;22259;48.792;8.964;2023-07-31T02:51:37;43.47;41.28;49.53;;
36217;Laerm;22259;48.792;8.964;2023-07-31T02:54:03;42.97;40.82;46.73;;
36217;Laerm;22259;48.792;8.964;2023-07-31T02:56:28;43.06;40.85;48.49;;
36217;Laerm;22259;48.792;8.964;2023-07-31T02:58:53;43.22;41.18;46.09;;
36217;Laerm;22259;48.792;8.964;2023-07-31T03:01:19;43.46;40.91;57.47;;
36217;Laerm;22259;48.792;8.964;2023-07-31T03:03:44;50.13;41.50;65.71;;
36217;Laerm;22259;48.792;8.964;2023-07-31T03:06:10;46.54;41.89;59.74;;
36217;Laerm;22259;48.792;8.964;2023-07-31T03:08:35;43.82;41.48;52.09;;
36217;Laerm;22259;48.792;8.964;2023-07-31T03:11:00;43.58;41.10;47.21;;
36217;Laerm;22259;48.792;8.964;2023-07-31T03:13:26;44.01;41.81;46.96;;
36217;Laerm;22259;48.792;8.964;2023-07-31T03:15:51;55.12;41.48;73.16;;
36217;Laerm;22259;48.792;8.964;2023-07-31T03:18:17;43.80;41.73;46.59;;
36217;Laerm;22259;48.792;8.964;2023-07-31T03:20:42;43.82;41.73;46.71;;
36217;Laerm;22259;48.792;8.964;2023-07-31T03:23:09;44.04;41.38;50.00;;
36217;Laerm;22259;48.792;8.964;2023-07-31T03:25:34;43.95;42.19;46.17;;
36217;Laerm;22259;48.792;8.964;2023-07-31T03:27:59;43.92;42.18;48.07;;
36217;Laerm;22259;48.792;8.964;2023-07-31T03:30:25;43.91;41.96;49.83;;
36217;Laerm;22259;48.792;8.964;2023-07-31T03:32:50;51.90;42.13;68.75;;
36217;Laerm;22259;48.792;8.964;2023-07-31T03:35:15;44.64;42.49;48.91;;
36217;Laerm;22259;48.792;8.964;2023-07-31T03:37:41;54.01;42.27;68.66;;
36217;Laerm;22259;48.792;8.964;2023-07-31T03:40:06;44.27;42.24;49.03;;
36217;Laerm;22259;48.792;8.964;2023-07-31T03:42:32;44.48;42.37;50.97;;
36217;Laerm;22259;48.792;8.964;2023-07-31T03:44:57;54.88;42.14;70.17;;
36217;Laerm;22259;48.792;8.964;2023-07-31T03:47:23;48.43;42.96;63.83;;
36217;Laerm;22259;48.792;8.964;2023-07-31T03:49:48;48.65;42.24;65.43;;
36217;Laerm;22259;48.792;8.964;2023-07-31T03:52:13;43.82;41.10;46.65;;
36217;Laerm;22259;48.792;8.964;2023-07-31T03:54:39;45.11;41.98;66.30;;
36217;Laerm;22259;48.792;8.964;2023-07-31T03:57:05;43.88;41.68;50.56;;
36217;Laerm;22259;48.792;8.964;2023-07-31T03:59:30;44.58;41.59;63.05;;
36217;Laerm;22259;48.792;8.964;2023-07-31T04:01:55;52.65;42.01;69.47;;
36217;Laerm;22259;48.792;8.964;2023-07-31T04:04:21;50.68;42.55;67.19;;
36217;Laerm;22259;48.792;8.964;2023-07-31T04:06:46;44.19;42.08;47.04;;
36217;Laerm;22259;48.792;8.964;2023-07-31T04:09:11;44.93;42.01;63.97;;
36217;Laerm;22259;48.792;8.964;2023-07-31T04:11:37;45.43;41.98;64.39;;
36217;Laerm;22259;48.792;8.964;2023-07-31T04:14:04;44.10;41.99;52.27;;
36217;Laerm;22259;48.792;8.964;2023-07-31T04:16:29;54.98;41.51;71.64;;
36217;Laerm;22259;48.792;8.964;2023-07-31T04:18:55;50.40;42.96;65.77;;
36217;Laerm;22259;48.792;8.964;2023-07-31T04:21:20;44.74;42.40;55.03;;
36217;Laerm;22259;48.792;8.964;2023-07-31T04:23:46;44.54;42.46;50.60;;
36217;Laerm;22259;48.792;8.964;2023-07-31T04:26:11;44.31;41.98;51.62;;
36217;Laerm;22259;48.792;8.964;2023-07-31T04:28:36;44.50;42.18;50.79;;
36217;Laerm;22259;48.792;8.964;2023-07-31T04:31:02;53.53;43.24;69.15;;
36217;Laerm;22259;48.792;8.964;2023-07-31T04:33:28;50.71;42.59;66.11;;
36217;Laerm;22259;48.792;8.964;2023-07-31T04:35:53;45.76;42.55;58.43;;
36217;Laerm;22259;48.792;8.964;2023-07-31T04:38:19;46.98;43.13;60.92;;
36217;Laerm;22259;48.792;8.964;2023-07-31T04:40:45;45.84;42.44;58.73;;
36217;Laerm;22259;48.792;8.964;2023-07-31T04:43:10;45.71;42.78;59.36;;
36217;Laerm;22259;48.792;8.964;2023-07-31T04:45:35;51.85;43.02;64.73;;
36217;Laerm;22259;48.792;8.964;2023-07-31T04:48:01;56.01;43.15;71.66;;
36217;Laerm;22259;48.792;8.964;2023-07-31T04:50:26;44.87;42.66;51.03;;
36217;Laerm;22259;48.792;8.964;2023-07-31T04:52:52;45.57;42.96;56.54;;
36217;Laerm;22259;48.792;8.964;2023-07-31T04:55:17;47.86;42.66;67.70;;
36217;Laerm;22259;48.792;8.964;2023-07-31T04:57:42;45.01;42.68;57.05;;
36217;Laerm;22259;48.792;8.964;2023-07-31T05:00:08;51.72;42.72;69.73;;
36217;Laerm;22259;48.792;8.964;2023-07-31T05:02:33;50.46;42.21;66.35;;
36217;Laerm;22259;48.792;8.964;2023-07-31T05:04:59;44.97;43.01;52.93;;
36217;Laerm;22259;48.792;8.964;2023-07-31T05:07:24;59.14;42.53;73.37;;
36217;Laerm;22259;48.792;8.964;2023-07-31T05:09:50;51.85;42.75;67.08;;
36217;Laerm;22259;48.792;8.964;2023-07-31T05:12:15;44.77;43.13;48.00;;
36217;Laerm;22259;48.792;8.964;2023-07-31T05:14:40;55.08;42.95;70.86;;
36217;Laerm;22259;48.792;8.964;2023-07-31T05:17:06;53.86;42.83;72.71;;
36217;Laerm;22259;48.792;8.964;2023-07-31T05:19:31;45.30;42.71;61.30;;
36217;Laerm;22259;48.792;8.964;2023-07-31T05:21:56;45.04;43.08;52.82;;
36217;Laerm;22259;48.792;8.964;2023-07-31T05:24:22;44.93;43.06;51.98;;
36217;Laerm;22259;48.792;8.964;2023-07-31T05:26:47;44.67;42.86;47.98;;
36217;Laerm;22259;48.792;8.964;2023-07-31T05:29:13;45.21;42.66;53.31;;
36217;Laerm;22259;48.792;8.964;2023-07-31T05:31:38;55.18;42.58;69.38;;
36217;Laerm;22259;48.792;8.964;2023-07-31T05:34:04;45.50;42.97;55.41;;
36217;Laerm;22259;48.792;8.964;2023-07-31T05:36:29;48.27;43.04;67.90;;
36217;Laerm;22259;48.792;8.964;2023-07-31T05:38:54;44.87;42.92;58.62;;
36217;Laerm;22259;48.792;8.964;2023-07-31T05:41:20;44.65;43.01;47.17;;
36217;Laerm;22259;48.792;8.964;2023-07-31T05:43:45;44.98;43.04;48.84;;
36217;Laerm;22259;48.792;8.964;2023-07-31T05:46:11;54.87;42.66;70.30;;
36217;Laerm;22259;48.792;8.964;2023-07-31T05:48:37;53.85;42.88;70.93;;
36217;Laerm;22259;48.792;8.964;2023-07-31T05:51:02;46.43;43.24;56.62;;
36217;Laerm;22259;48.792;8.964;2023-07-31T05:53:27;63.32;43.19;77.32;;
36217;Laerm;22259;48.792;8.964;2023-07-31T05:55:53;44.72;42.65;48.36;;
36217;Laerm;22259;48.792;8.964;2023-07-31T05:58:18;54.60;43.28;68.03;;
36217;Laerm;22259;48.792;8.964;2023-07-31T06:00:44;53.33;42.03;70.07;;
36217;Laerm;22259;48.792;8.964;2023-07-31T06:03:09;50.26;42.61;66.09;;
36217;Laerm;22259;48.792;8.964;2023-07-31T06:05:34;44.81;42.19;50.98;;
36217;Laerm;22259;48.792;8.964;2023-07-31T06:08:00;44.28;42.24;50.39;;
36217;Laerm;22259;48.792;8.964;2023-07-31T06:10:25;44.22;42.47;49.12;;
36217;Laerm;22259;48.792;8.964;2023-07-31T06:12:51;44.48;42.60;48.55;;
36217;Laerm;22259;48.792;8.964;2023-07-31T06:15:16;54.61;42.61;69.91;;
36217;Laerm;22259;48.792;8.964;2023-07-31T06:17:44;45.53;42.26;59.08;;
36217;Laerm;22259;48.792;8.964;2023-07-31T06:20:09;43.92;42.22;46.14;;
36217;Laerm;22259;48.792;8.964;2023-07-31T06:22:35;47.98;42.30;65.57;;
36217;Laerm;22259;48.792;8.964;2023-07-31T06:25:00;52.13;42.33;68.92;;
36217;Laerm;22259;48.792;8.964;2023-07-31T06:27:26;45.31;42.44;62.15;;
36217;Laerm;22259;48.792;8.964;2023-07-31T06:29:51;54.06;42.14;70.17;;
36217;Laerm;22259;48.792;8.964;2023-07-31T06:32:16;52.20;42.68;69.91;;
36217;Laerm;22259;48.792;8.964;2023-07-31T06:34:42;44.81;42.47;60.21;;
36217;Laerm;22259;48.792;8.964;2023-07-31T06:37:07;44.31;40.76;55.62;;
36217;Laerm;22259;48.792;8.964;2023-07-31T06:39:32;44.69;42.83;54.41;;
36217;Laerm;22259;48.792;8.964;2023-07-31T06:41:58;44.76;42.68;49.46;;
36217;Laerm;22259;48.792;8.964;2023-07-31T06:44:23;55.92;42.19;70.75;;
36217;Laerm;22259;48.792;8.964;2023-07-31T06:46:49;45.46;42.68;52.49;;
36217;Laerm;22259;48.792;8.964;2023-07-31T06:49:14;53.17;42.41;66.75;;
36217;Laerm;22259;48.792;8.964;2023-07-31T06:51:42;45.30;42.43;51.32;;
36217;Laerm;22259;48.792;8.964;2023-07-31T06:54:09;45.06;41.99;53.97;;
36217;Laerm;22259;48.792;8.964;2023-07-31T06:56:34;43.81;41.77;50.43;;
36217;Laerm;22259;48.792;8.964;2023-07-31T06:58:59;44.35;42.47;50.35;;
36217;Laerm;22259;48.792;8.964;2023-07-31T07:01:25;54.10;42.74;69.42;;
36217;Laerm;22259;48.792;8.964;2023-07-31T07:03:51;44.79;41.63;59.27;;
36217;Laerm;22259;48.792;8.964;2023-07-31T07:06:16;43.52;41.64;50.37;;
36217;Laerm;22259;48.792;8.964;2023-07-31T07:08:42;44.63;42.08;53.65;;
36217;Laerm;22259;48.792;8.964;2023-07-31T07:11:08;43.63;41.68;47.22;;
36217;Laerm;22259;48.792;8.964;2023-07-31T07:13:33;44.05;42.19;52.77;;
36217;Laerm;22259;48.792;8.964;2023-07-31T07:15:59;55.55;42.24;71.27;;
36217;Laerm;22259;48.792;8.964;2023-07-31T07:18:24;54.83;42.50;67.55;;
36217;Laerm;22259;48.792;8.964;2023-07-31T07:20:50;45.06;42.14;54.82;;
36217;Laerm;22259;48.792;8.964;2023-07-31T07:23:16;43.77;41.72;48.69;;
36217;Laerm;22259;48.792;8.964;2023-07-31T07:25:42;44.69;41.59;51.97;;
36217;Laerm;22259;48.792;8.964;2023-07-31T07:28:07;43.54;41.30;53.18;;
36217;Laerm;22259;48.792;8.964;2023-07-31T07:30:32;53.41;42.26;69.76;;
36217;Laerm;22259;48.792;8.964;2023-07-31T07:32:58;52.85;42.38;68.30;;
36217;Laerm;22259;48.792;8.964;2023-07-31T07:35:23;46.40;42.90;60.98;;
36217;Laerm;22259;48.792;8.964;2023-07-31T07:37:49;44.83;42.30;59.84;;
36217;Laerm;22259;48.792;8.964;2023-07-31T07:40:15;46.32;42.01;64.03;;
36217;Laerm;22259;48.792;8.964;2023-07-31T07:42:40;44.41;41.32;59.04;;
36217;Laerm;22259;48.792;8.964;2023-07-31T07:45:06;53.69;42.27;68.34;;
36217;Laerm;22259;48.792;8.964;2023-07-31T07:47:32;43.91;41.82;52.08;;
36217;Laerm;22259;48.792;8.964;2023-07-31T07:49:57;52.86;42.50;65.12;;
36217;Laerm;22259;48.792;8.964;2023-07-31T07:52:22;45.60;42.56;55.58;;
36217;Laerm;22259;48.792;8.964;2023-07-31T07:54:48;44.83;42.37;55.81;;
36217;Laerm;22259;48.792;8.964;2023-07-31T07:57:13;48.61;42.78;70.44;;
36217;Laerm;22259;48.792;8.964;2023-07-31T07:59:40;51.60;42.74;70.47;;
36217;Laerm;22259;48.792;8.964;2023-07-31T08:02:06;54.03;43.41;69.65;;
36217;Laerm;22259;48.792;8.964;2023-07-31T08:04:31;47.62;42.86;59.04;;
36217;Laerm;22259;48.792;8.964;2023-07-31T08:06:56;48.52;42.74;67.02;;
36217;Laerm;22259;48.792;8.964;2023-07-31T08:09:22;45.76;41.98;68.29;;
36217;Laerm;22259;48.792;8.964;2023-07-31T08:11:47;44.05;41.70;52.89;;
36217;Laerm;22259;48.792;8.964;2023-07-31T08:14:13;49.32;43.06;69.22;;
36217;Laerm;22259;48.792;8.964;2023-07-31T08:16:38;57.80;42.56;72.06;;
36217;Laerm;22259;48.792;8.964;2023-07-31T08:19:03;46.36;42.33;61.54;;
36217;Laerm;22259;48.792;8.964;2023-07-31T08:21:29;45.68;42.83;51.49;;
36217;Laerm;22259;48.792;8.964;2023-07-31T08:23:55;45.38;43.02;53.70;;
36217;Laerm;22259;48.792;8.964;2023-07-31T08:26:20;45.35;42.58;51.40;;
36217;Laerm;22259;48.792;8.964;2023-07-31T08:28:46;44.77;42.14;53.05;;
36217;Laerm;22259;48.792;8.964;2023-07-31T08:31:12;56.74;42.62;70.49;;
36217;Laerm;22259;48.792;8.964;2023-07-31T08:33:38;47.20;43.13;55.26;;
36217;Laerm;22259;48.792;8.964;2023-07-31T08:36:03;45.81;42.47;64.89;;
36217;Laerm;22259;48.792;8.964;2023-07-31T08:38:30;45.29;42.56;57.10;;
36217;Laerm;22259;48.792;8.964;2023-07-31T08:40:58;63.33;43.48;75.75;;
36217;Laerm;22259;48.792;8.964;2023-07-31T08:43:26;45.28;42.77;50.50;;
36217;Laerm;22259;48.792;8.964;2023-07-31T08:45:52;56.28;42.69;71.93;;
36217;Laerm;22259;48.792;8.964;2023-07-31T08:48:17;44.92;42.19;60.11;;
36217;Laerm;22259;48.792;8.964;2023-07-31T08:50:44;54.47;41.34;70.19;;
36217;Laerm;22259;48.792;8.964;2023-07-31T08:53:10;45.42;42.01;62.56;;
36217;Laerm;22259;48.792;8.964;2023-07-31T08:55:35;44.14;41.88;52.36;;
36217;Laerm;22259;48.792;8.964;2023-07-31T08:58:01;49.28;41.64;61.94;;
36217;Laerm;22259;48.792;8.964;2023-07-31T09:00:28;57.71;42.13;73.43;;
36217;Laerm;22259;48.792;8.964;2023-07-31T09:02:59;53.23;41.70;68.87;;
36217;Laerm;22259;48.792;8.964;2023-07-31T09:05:26;45.79;42.79;66.71;;
36217;Laerm;22259;48.792;8.964;2023-07-31T09:07:53;44.51;42.15;48.63;;
36217;Laerm;22259;48.792;8.964;2023-07-31T09:10:20;44.07;41.82;56.45;;
36217;Laerm;22259;48.792;8.964;2023-07-31T09:12:45;43.78;41.68;49.31;;
36217;Laerm;22259;48.792;8.964;2023-07-31T09:15:11;55.34;42.12;70.13;;
36217;Laerm;22259;48.792;8.964;2023-07-31T09:17:37;55.66;41.44;70.10;;
36217;Laerm;22259;48.792;8.964;2023-07-31T09:20:20;44.62;41.63;51.51;;
36217;Laerm;22259;48.792;8.964;2023-07-31T09:22:46;44.10;41.73;53.49;;
36217;Laerm;22259;48.792;8.964;2023-07-31T09:25:19;45.11;42.11;52.30;;
36217;Laerm;22259;48.792;8.964;2023-07-31T09:28:04;44.83;42.21;60.28;;
36217;Laerm;22259;48.792;8.964;2023-07-31T09:30:30;53.92;41.70;71.07;;
36217;Laerm;22259;48.792;8.964;2023-07-31T09:33:05;53.17;42.72;70.37;;
36217;Laerm;22259;48.792;8.964;2023-07-31T09:35:34;44.16;41.77;50.94;;
36217;Laerm;22259;48.792;8.964;2023-07-31T09:38:01;43.63;41.79;52.30;;
36217;Laerm;22259;48.792;8.964;2023-07-31T09:40:31;43.98;42.01;56.95;;
36217;Laerm;22259;48.792;8.964;2023-07-31T09:42:57;45.71;42.06;58.97;;
36217;Laerm;22259;48.792;8.964;2023-07-31T09:45:23;55.14;42.38;70.48;;
36217;Laerm;22259;48.792;8.964;2023-07-31T09:47:49;54.11;42.30;70.14;;
36217;Laerm;22259;48.792;8.964;2023-07-31T09:50:14;44.12;41.81;57.53;;
36217;Laerm;22259;48.792;8.964;2023-07-31T09:52:41;45.64;42.35;70.49;;
36217;Laerm;22259;48.792;8.964;2023-07-31T09:55:06;43.81;41.36;50.13;;
36217;Laerm;22259;48.792;8.964;2023-07-31T09:57:32;43.87;41.66;51.09;;
36217;Laerm;22259;48.792;8.964;2023-07-31T09:59:58;45.86;42.03;56.18;;
36217;Laerm;22259;48.792;8.964;2023-07-31T10:02:23;55.72;42.14;70.83;;
36217;Laerm;22259;48.792;8.964;2023-07-31T10:04:49;44.56;41.63;49.60;;
36217;Laerm;22259;48.792;8.964;2023-07-31T10:07:16;43.81;41.88;49.68;;
36217;Laerm;22259;48.792;8.964;2023-07-31T10:09:42;43.99;41.98;48.01;;
36217;Laerm;22259;48.792;8.964;2023-07-31T10:12:08;43.90;41.96;47.63;;
36217;Laerm;22259;48.792;8.964;2023-07-31T10:14:34;46.60;41.73;64.97;;
36217;Laerm;22259;48.792;8.964;2023-07-31T10:17:00;56.00;42.78;69.11;;
36217;Laerm;22259;48.792;8.964;2023-07-31T10:19:26;43.79;41.24;51.27;;
36217;Laerm;22259;48.792;8.964;2023-07-31T10:21:52;43.54;41.46;55.21;;
36217;Laerm;22259;48.792;8.964;2023-07-31T10:24:18;43.77;41.48;52.68;;
36217;Laerm;22259;48.792;8.964;2023-07-31T10:26:45;43.12;40.80;51.48;;
36217;Laerm;22259;48.792;8.964;2023-07-31T10:29:11;43.91;41.04;58.25;;
36217;Laerm;22259;48.792;8.964;2023-07-31T10:31:37;56.49;41.53;72.41;;
36217;Laerm;22259;48.792;8.964;2023-07-31T10:34:02;45.21;41.59;59.82;;
36217;Laerm;22259;48.792;8.964;2023-07-31T10:36:28;44.82;41.28;70.25;;
36217;Laerm;22259;48.792;8.964;2023-07-31T10:38:55;44.75;41.70;51.92;;
36217;Laerm;22259;48.792;8.964;2023-07-31T10:41:26;45.91;41.64;62.24;;
36217;Laerm;22259;48.792;8.964;2023-07-31T10:43:54;44.30;40.93;54.09;;
36217;Laerm;22259;48.792;8.964;2023-07-31T10:46:19;56.06;41.75;70.56;;
36217;Laerm;22259;48.792;8.964;2023-07-31T10:48:45;54.33;41.63;69.05;;
36217;Laerm;22259;48.792;8.964;2023-07-31T10:51:10;44.16;41.50;54.19;;
36217;Laerm;22259;48.792;8.964;2023-07-31T10:53:37;43.43;41.60;57.33;;
36217;Laerm;22259;48.792;8.964;2023-07-31T10:56:03;44.04;41.24;53.35;;
36217;Laerm;22259;48.792;8.964;2023-07-31T10:58:29;44.83;40.67;51.57;;
36217;Laerm;22259;48.792;8.964;2023-07-31T11:00:57;54.86;42.82;68.01;;
36217;Laerm;22259;48.792;8.964;2023-07-31T11:03:27;47.58;42.47;60.76;;
36217;Laerm;22259;48.792;8.964;2023-07-31T11:06:01;44.98;41.96;50.94;;
36217;Laerm;22259;48.792;8.964;2023-07-31T11:08:30;45.44;42.41;53.52;;
36217;Laerm;22259;48.792;8.964;2023-07-31T11:11:06;45.88;42.32;62.03;;
36217;Laerm;22259;48.792;8.964;2023-07-31T11:16:19;56.83;41.64;75.74;;
36217;Laerm;22259;48.792;8.964;2023-07-31T11:18:45;54.78;40.95;70.73;;
36217;Laerm;22259;48.792;8.964;2023-07-31T11:21:16;45.21;42.79;51.94;;
36217;Laerm;22259;48.792;8.964;2023-07-31T11:23:45;44.97;43.10;49.26;;
36217;Laerm;22259;48.792;8.964;2023-07-31T11:26:10;46.18;43.38;57.72;;
36217;Laerm;22259;48.792;8.964;2023-07-31T11:28:36;46.05;42.69;58.50;;
36217;Laerm;22259;48.792;8.964;2023-07-31T11:31:03;54.62;41.89;72.67;;
36217;Laerm;22259;48.792;8.964;2023-07-31T11:33:29;53.87;42.03;70.12;;
36217;Laerm;22259;48.792;8.964;2023-07-31T11:35:54;44.19;40.82;57.80;;
36217;Laerm;22259;48.792;8.964;2023-07-31T11:38:23;44.15;41.64;50.47;;
36217;Laerm;22259;48.792;8.964;2023-07-31T11:40:49;44.92;42.47;50.99;;
36217;Laerm;22259;48.792;8.964;2023-07-31T11:43:14;45.83;42.93;64.85;;
36217;Laerm;22259;48.792;8.964;2023-07-31T11:45:44;56.65;40.87;73.95;;
36217;Laerm;22259;48.792;8.964;2023-07-31T11:48:10;44.07;41.16;51.92;;
36217;Laerm;22259;48.792;8.964;2023-07-31T11:50:35;53.75;41.55;67.06;;
36217;Laerm;22259;48.792;8.964;2023-07-31T11:53:02;44.38;40.80;56.27;;
36217;Laerm;22259;48.792;8.964;2023-07-31T11:55:31;44.80;42.27;50.54;;
36217;Laerm;22259;48.792;8.964;2023-07-31T11:57:57;44.61;42.44;50.40;;
36217;Laerm;22259;48.792;8.964;2023-07-31T12:00:23;53.69;42.89;69.31;;
36217;Laerm;22259;48.792;8.964;2023-07-31T12:02:50;51.32;41.48;65.02;;
36217;Laerm;22259;48.792;8.964;2023-07-31T12:05:15;43.73;41.38;55.71;;
36217;Laerm;22259;48.792;8.964;2023-07-31T12:07:44;43.08;40.69;60.29;;
36217;Laerm;22259;48.792;8.964;2023-07-31T12:10:11;43.34;41.04;51.59;;
36217;Laerm;22259;48.792;8.964;2023-07-31T12:12:36;43.64;41.20;63.20;;
36217;Laerm;22259;48.792;8.964;2023-07-31T12:15:01;56.26;41.50;71.94;;
36217;Laerm;22259;48.792;8.964;2023-07-31T12:17:27;53.14;41.12;66.76;;
36217;Laerm;22259;48.792;8.964;2023-07-31T12:19:52;43.66;41.16;51.21;;
36217;Laerm;22259;48.792;8.964;2023-07-31T12:22:18;43.41;40.91;54.72;;
36217;Laerm;22259;48.792;8.964;2023-07-31T12:24:46;43.41;40.55;55.58;;
36217;Laerm;22259;48.792;8.964;2023-07-31T12:27:12;43.33;40.82;48.87;;
36217;Laerm;22259;48.792;8.964;2023-07-31T12:29:38;54.31;42.03;70.89;;
36217;Laerm;22259;48.792;8.964;2023-07-31T12:32:04;54.51;40.89;71.70;;
36217;Laerm;22259;48.792;8.964;2023-07-31T12:34:31;44.27;41.55;52.70;;
36217;Laerm;22259;48.792;8.964;2023-07-31T12:36:56;45.34;41.70;52.28;;
36217;Laerm;22259;48.792;8.964;2023-07-31T12:39:21;45.46;43.19;50.15;;
36217;Laerm;22259;48.792;8.964;2023-07-31T12:41:47;45.51;43.23;55.33;;
36217;Laerm;22259;48.792;8.964;2023-07-31T12:44:12;46.10;43.15;54.13;;
36217;Laerm;22259;48.792;8.964;2023-07-31T12:46:37;57.97;42.74;70.84;;
36217;Laerm;22259;48.792;8.964;2023-07-31T12:49:03;45.91;42.14;54.86;;
36217;Laerm;22259;48.792;8.964;2023-07-31T12:51:28;48.78;42.21;65.76;;
36217;Laerm;22259;48.792;8.964;2023-07-31T12:53:54;47.93;42.03;60.76;;
36217;Laerm;22259;48.792;8.964;2023-07-31T12:56:19;46.86;43.18;52.94;;
36217;Laerm;22259;48.792;8.964;2023-07-31T12:58:45;46.65;43.19;65.74;;
36217;Laerm;22259;48.792;8.964;2023-07-31T13:01:10;55.03;43.31;68.36;;
36217;Laerm;22259;48.792;8.964;2023-07-31T13:03:35;47.76;41.89;62.78;;
36217;Laerm;22259;48.792;8.964;2023-07-31T13:06:01;44.22;41.26;52.96;;
36217;Laerm;22259;48.792;8.964;2023-07-31T13:08:26;45.96;41.93;55.65;;
36217;Laerm;22259;48.792;8.964;2023-07-31T13:10:51;46.45;42.92;54.95;;
36217;Laerm;22259;48.792;8.964;2023-07-31T13:13:17;45.47;42.52;51.15;;
36217;Laerm;22259;48.792;8.964;2023-07-31T13:15:43;56.84;41.88;76.01;;
36217;Laerm;22259;48.792;8.964;2023-07-31T13:18:08;48.75;41.77;65.94;;
36217;Laerm;22259;48.792;8.964;2023-07-31T13:20:34;44.90;41.82;57.76;;
36217;Laerm;22259;48.792;8.964;2023-07-31T13:22:59;56.55;41.66;71.04;;
36217;Laerm;22259;48.792;8.964;2023-07-31T13:25:25;45.07;42.61;55.46;;
36217;Laerm;22259;48.792;8.964;2023-07-31T13:27:50;43.89;41.33;50.72;;
36217;Laerm;22259;48.792;8.964;2023-07-31T13:30:16;55.09;41.86;72.51;;
36217;Laerm;22259;48.792;8.964;2023-07-31T13:32:41;53.51;41.34;71.72;;
36217;Laerm;22259;48.792;8.964;2023-07-31T13:35:07;51.38;41.55;67.87;;
36217;Laerm;22259;48.792;8.964;2023-07-31T13:37:33;57.75;41.32;70.95;;
36217;Laerm;22259;48.792;8.964;2023-07-31T13:39:58;44.13;41.10;61.00;;
36217;Laerm;22259;48.792;8.964;2023-07-31T13:42:23;43.26;40.38;55.12;;
36217;Laerm;22259;48.792;8.964;2023-07-31T13:44:49;57.90;41.30;75.53;;